createdAt,value
2019-03-19T00:01:17.928Z,4.38
2019-03-19T00:03:48.956Z,4.46
2019-03-19T00:06:20.000Z,4.37
2019-03-19T00:08:51.274Z,4.37
2019-03-19T00:11:22.525Z,4.32
2019-03-19T00:13:53.679Z,4.24
2019-03-19T00:16:25.003Z,4.19
2019-03-19T00:18:56.340Z,4.15
2019-03-19T00:21:27.519Z,4.10
2019-03-19T00:23:58.843Z,4.09
2019-03-19T00:26:31.220Z,4.04
2019-03-19T00:29:02.555Z,4.12
2019-03-19T00:31:33.916Z,4.09
2019-03-19T00:34:06.190Z,3.95
2019-03-19T00:36:37.333Z,3.97
2019-03-19T00:39:09.607Z,3.86
2019-03-19T00:41:40.968Z,3.91
2019-03-19T00:44:12.252Z,3.82
2019-03-19T00:46:43.652Z,3.86
2019-03-19T00:49:15.218Z,3.75
2019-03-19T00:51:47.587Z,3.62
2019-03-19T00:54:18.898Z,3.67
2019-03-19T00:56:50.288Z,3.59
2019-03-19T00:59:22.528Z,3.64
2019-03-19T01:01:54.006Z,3.64
2019-03-19T01:04:25.397Z,3.53
2019-03-19T01:06:56.709Z,3.41
2019-03-19T01:09:27.957Z,3.30
2019-03-19T01:11:59.297Z,3.21
2019-03-19T01:16:56.875Z,3.31
2019-03-19T01:19:27.938Z,3.18
2019-03-19T01:21:59.371Z,3.24
2019-03-19T01:24:30.735Z,3.18
2019-03-19T01:27:01.893Z,3.12
2019-03-19T01:29:34.260Z,3.14
2019-03-19T01:32:05.899Z,3.30
2019-03-19T01:34:37.455Z,3.39
2019-03-19T01:37:08.603Z,3.35
2019-03-19T01:39:39.943Z,3.28
2019-03-19T01:42:11.303Z,3.23
2019-03-19T01:44:42.449Z,3.21
2019-03-19T01:47:13.488Z,3.05
2019-03-19T01:49:44.836Z,3.09
2019-03-19T01:52:16.011Z,2.94
2019-03-19T01:54:47.309Z,2.92
2019-03-19T01:57:18.682Z,2.99
2019-03-19T01:59:49.928Z,2.97
2019-03-19T02:02:21.272Z,2.94
2019-03-19T02:04:52.456Z,2.94
2019-03-19T02:07:23.641Z,2.96
2019-03-19T02:09:55.218Z,2.99
2019-03-19T02:12:26.605Z,3.11
2019-03-19T02:14:57.989Z,3.08
2019-03-19T02:17:29.292Z,3.18
2019-03-19T02:20:01.538Z,3.18
2019-03-19T02:22:32.752Z,3.24
2019-03-19T02:25:04.964Z,3.33
2019-03-19T02:27:36.203Z,3.30
2019-03-19T02:30:12.545Z,3.28
2019-03-19T02:32:44.045Z,3.28
2019-03-19T02:35:15.626Z,3.25
2019-03-19T02:37:47.003Z,3.23
2019-03-19T02:40:18.367Z,3.21
2019-03-19T02:42:49.828Z,3.16
2019-03-19T02:45:21.076Z,3.16
2019-03-19T02:47:52.530Z,3.17
2019-03-19T02:50:23.883Z,3.20
2019-03-19T02:52:55.263Z,3.16
2019-03-19T02:55:26.541Z,3.13
2019-03-19T02:57:59.464Z,3.09
2019-03-19T03:00:31.017Z,2.99
2019-03-19T03:03:02.485Z,2.98
2019-03-19T03:05:34.035Z,2.97
2019-03-19T03:08:05.577Z,2.90
2019-03-19T03:10:37.025Z,2.84
2019-03-19T03:13:08.481Z,2.83
2019-03-19T03:15:39.808Z,2.76
2019-03-19T03:18:11.024Z,2.78
2019-03-19T03:20:42.442Z,2.72
2019-03-19T03:23:13.754Z,2.81
2019-03-19T03:25:46.060Z,2.76
2019-03-19T03:28:18.329Z,2.70
2019-03-19T03:30:49.517Z,2.69
2019-03-19T03:33:20.832Z,2.76
2019-03-19T03:35:52.178Z,2.73
2019-03-19T03:38:23.520Z,2.65
2019-03-19T03:40:55.988Z,2.53
2019-03-19T03:43:27.182Z,2.52
2019-03-19T03:45:58.392Z,2.58
2019-03-19T03:48:29.521Z,2.59
2019-03-19T03:51:00.770Z,2.67
2019-03-19T03:53:32.139Z,2.77
2019-03-19T03:56:03.475Z,2.86
2019-03-19T03:58:38.002Z,2.69
2019-03-19T04:01:09.079Z,2.79
2019-03-19T04:03:40.359Z,2.75
2019-03-19T04:06:11.636Z,2.73
2019-03-19T04:08:43.082Z,2.73
2019-03-19T04:11:14.310Z,2.78
2019-03-19T04:13:45.888Z,2.85
2019-03-19T04:16:16.969Z,2.88
2019-03-19T04:18:48.146Z,2.94
2019-03-19T04:21:19.489Z,2.92
2019-03-19T04:23:51.379Z,2.95
2019-03-19T04:26:22.842Z,3.01
2019-03-19T04:28:54.157Z,3.07
2019-03-19T04:31:25.733Z,3.11
2019-03-19T04:33:57.237Z,3.18
2019-03-19T04:36:28.757Z,3.23
2019-03-19T04:39:00.139Z,3.29
2019-03-19T04:41:31.530Z,3.28
2019-03-19T04:44:03.145Z,3.33
2019-03-19T04:46:38.044Z,3.42
2019-03-19T04:49:12.466Z,3.46
2019-03-19T04:51:44.334Z,3.43
2019-03-19T04:54:17.520Z,3.54
2019-03-19T04:56:49.110Z,3.49
2019-03-19T04:59:20.317Z,3.58
2019-03-19T05:01:51.768Z,3.62
2019-03-19T05:04:22.851Z,3.76
2019-03-19T05:06:54.260Z,3.81
2019-03-19T05:09:25.515Z,3.97
2019-03-19T05:11:57.061Z,3.99
2019-03-19T05:14:28.412Z,4.18
2019-03-19T05:16:59.660Z,4.37
2019-03-19T05:19:30.743Z,4.51
2019-03-19T05:22:02.157Z,4.69
2019-03-19T05:24:37.732Z,4.80
2019-03-19T05:27:14.087Z,4.93
2019-03-19T05:29:45.170Z,5.16
2019-03-19T05:32:16.605Z,5.38
2019-03-19T05:34:47.876Z,5.53
2019-03-19T05:37:19.985Z,5.69
2019-03-19T05:39:51.109Z,5.86
2019-03-19T05:42:22.583Z,6.02
2019-03-19T05:44:53.733Z,6.23
2019-03-19T05:47:36.546Z,6.38
2019-03-19T05:49:59.125Z,6.33
2019-03-19T05:52:31.254Z,6.47
2019-03-19T05:55:02.436Z,6.61
2019-03-19T05:57:33.645Z,6.61
2019-03-19T06:00:10.783Z,6.68
2019-03-19T06:02:42.405Z,6.84
2019-03-19T06:05:13.923Z,7.10
2019-03-19T06:07:45.188Z,7.22
2019-03-19T06:10:16.346Z,7.39
2019-03-19T06:12:47.679Z,7.54
2019-03-19T06:15:19.932Z,7.65
2019-03-19T06:17:51.400Z,7.80
2019-03-19T06:20:22.718Z,7.88
2019-03-19T06:22:54.209Z,8.08
2019-03-19T06:25:25.564Z,8.12
2019-03-19T06:28:00.656Z,8.25
2019-03-19T06:30:29.799Z,8.32
2019-03-19T06:33:01.165Z,8.32
2019-03-19T06:35:32.626Z,8.47
2019-03-19T06:38:04.022Z,8.36
2019-03-19T06:40:35.310Z,8.33
2019-03-19T06:43:07.046Z,8.55
2019-03-19T06:45:38.704Z,8.60
2019-03-19T06:48:09.789Z,8.65
2019-03-19T06:50:45.396Z,8.61
2019-03-19T06:53:15.212Z,8.51
2019-03-19T06:55:46.456Z,8.57
2019-03-19T06:58:17.615Z,8.72
2019-03-19T07:00:49.130Z,8.74
2019-03-19T07:03:20.681Z,8.77
2019-03-19T07:05:52.100Z,8.91
2019-03-19T07:08:23.662Z,8.91
2019-03-19T07:10:54.871Z,9.04
2019-03-19T07:13:26.209Z,8.95
2019-03-19T07:15:59.010Z,9.21
2019-03-19T07:18:30.355Z,9.53
2019-03-19T07:21:01.784Z,9.41
2019-03-19T07:23:33.352Z,9.59
2019-03-19T07:26:04.806Z,9.68
2019-03-19T07:28:36.585Z,9.58
2019-03-19T07:31:07.692Z,9.69
2019-03-19T07:33:39.179Z,9.99
2019-03-19T07:36:10.420Z,10.00
2019-03-19T07:38:41.769Z,10.28
2019-03-19T07:41:13.080Z,10.48
2019-03-19T07:43:44.618Z,10.56
2019-03-19T07:46:16.223Z,10.71
2019-03-19T07:48:47.570Z,10.67
2019-03-19T07:51:18.798Z,10.39
2019-03-19T07:53:51.108Z,10.43
2019-03-19T07:56:22.413Z,10.62
2019-03-19T07:58:53.409Z,10.64
2019-03-19T08:01:24.851Z,10.73
2019-03-19T08:03:56.713Z,10.94
2019-03-19T08:06:28.032Z,11.33
2019-03-19T08:08:59.497Z,11.46
2019-03-19T08:11:31.616Z,11.17
2019-03-19T08:14:03.829Z,11.49
2019-03-19T08:16:35.327Z,11.36
2019-03-19T08:19:07.354Z,11.47
2019-03-19T08:21:38.791Z,11.52
2019-03-19T08:24:10.166Z,11.49
2019-03-19T08:26:42.265Z,11.29
2019-03-19T08:29:14.100Z,11.00
2019-03-19T08:31:47.830Z,11.22
2019-03-19T08:34:20.572Z,11.33
2019-03-19T08:36:52.121Z,11.36
2019-03-19T08:39:23.910Z,11.74
2019-03-19T08:42:00.096Z,11.73
2019-03-19T08:44:31.232Z,11.48
2019-03-19T08:47:02.374Z,11.47
2019-03-19T08:49:34.634Z,11.67
2019-03-19T08:52:06.052Z,11.66
2019-03-19T08:54:38.606Z,11.63
2019-03-19T08:57:10.972Z,12.06
2019-03-19T08:59:42.158Z,12.21
2019-03-19T09:02:15.231Z,12.26
2019-03-19T09:04:46.558Z,12.64
2019-03-19T09:07:20.214Z,12.89
2019-03-19T09:09:51.446Z,13.02
2019-03-19T09:12:22.726Z,13.04
2019-03-19T09:14:55.767Z,12.84
2019-03-19T09:17:27.162Z,12.64
2019-03-19T09:19:59.588Z,12.78
2019-03-19T09:22:30.798Z,13.23
2019-03-19T09:25:03.178Z,13.28
2019-03-19T09:27:35.034Z,13.44
2019-03-19T09:30:09.723Z,13.42
2019-03-19T09:32:41.225Z,13.14
2019-03-19T09:35:13.853Z,13.49
2019-03-19T09:37:57.289Z,13.56
2019-03-19T09:40:22.832Z,13.65
2019-03-19T09:42:54.363Z,13.64
2019-03-19T09:45:26.540Z,13.60
2019-03-19T09:47:58.590Z,13.29
2019-03-19T09:50:32.493Z,13.49
2019-03-19T09:53:05.922Z,13.82
2019-03-19T09:55:40.213Z,13.72
2019-03-19T09:58:11.357Z,13.87
2019-03-19T10:00:43.404Z,14.26
2019-03-19T10:03:14.674Z,14.52
2019-03-19T10:05:46.015Z,14.44
2019-03-19T10:08:17.475Z,14.35
2019-03-19T10:10:48.852Z,14.50
2019-03-19T10:13:21.115Z,14.82
2019-03-19T10:15:52.501Z,15.58
2019-03-19T10:18:24.196Z,14.73
2019-03-19T10:20:55.797Z,14.76
2019-03-19T10:23:27.189Z,15.61
2019-03-19T10:26:00.225Z,15.83
2019-03-19T10:28:31.458Z,16.31
2019-03-19T10:31:02.613Z,16.88
2019-03-19T10:33:34.825Z,16.39
2019-03-19T10:36:06.182Z,15.78
2019-03-19T10:38:37.470Z,16.29
2019-03-19T10:41:11.272Z,17.47
2019-03-19T10:43:42.762Z,18.36
2019-03-19T10:46:14.930Z,18.21
2019-03-19T10:48:46.225Z,18.98
2019-03-19T10:51:21.890Z,19.09
2019-03-19T10:53:54.979Z,20.03
2019-03-19T10:56:28.628Z,21.23
2019-03-19T10:59:04.856Z,21.24
2019-03-19T11:01:40.501Z,21.46
2019-03-19T11:04:16.447Z,21.49
2019-03-19T11:06:53.645Z,22.80
2019-03-19T11:09:25.135Z,23.76
2019-03-19T11:11:57.822Z,23.04
2019-03-19T11:14:30.246Z,22.58
2019-03-19T11:17:01.451Z,21.52
2019-03-19T11:19:32.947Z,21.85
2019-03-19T11:22:04.531Z,21.60
2019-03-19T11:24:39.080Z,22.46
2019-03-19T11:27:10.224Z,23.31
2019-03-19T11:29:41.488Z,23.35
2019-03-19T11:32:12.651Z,22.63
2019-03-19T11:34:44.421Z,23.35
2019-03-19T11:37:15.584Z,23.75
2019-03-19T11:39:47.716Z,23.51
2019-03-19T11:42:19.108Z,22.79
2019-03-19T11:44:50.729Z,22.80
2019-03-19T11:47:22.243Z,23.64
2019-03-19T11:49:53.743Z,23.90
2019-03-19T11:52:25.916Z,24.22
2019-03-19T11:54:57.279Z,24.27
2019-03-19T11:57:30.755Z,24.04
2019-03-19T12:00:10.867Z,23.86
2019-03-19T12:02:37.517Z,22.69
2019-03-19T12:05:09.329Z,22.31
2019-03-19T12:07:40.835Z,22.66
2019-03-19T12:10:12.075Z,23.93
2019-03-19T12:12:43.809Z,24.45
2019-03-19T12:15:14.900Z,24.88
2019-03-19T12:17:48.821Z,24.12
2019-03-19T12:20:20.962Z,23.87
2019-03-19T12:22:53.385Z,23.96
2019-03-19T12:25:26.667Z,22.60
2019-03-19T12:27:57.937Z,21.98
2019-03-19T12:30:30.309Z,22.25
2019-03-19T12:33:01.796Z,22.26
2019-03-19T12:35:39.344Z,23.94
2019-03-19T12:38:11.004Z,24.30
2019-03-19T12:40:43.595Z,24.30
2019-03-19T12:43:15.373Z,23.80
2019-03-19T12:45:46.505Z,23.29
2019-03-19T12:48:17.781Z,22.78
2019-03-19T12:50:49.381Z,23.89
2019-03-19T12:53:20.738Z,25.03
2019-03-19T12:55:51.898Z,24.22
2019-03-19T12:58:24.574Z,23.64
2019-03-19T13:00:56.037Z,23.93
2019-03-19T13:03:27.073Z,24.42
2019-03-19T13:05:58.303Z,23.84
2019-03-19T13:08:29.673Z,23.59
2019-03-19T13:11:01.060Z,23.84
2019-03-19T13:13:34.510Z,23.03
2019-03-19T13:16:08.821Z,22.58
2019-03-19T13:18:43.611Z,22.89
2019-03-19T13:21:15.066Z,20.76
2019-03-19T13:23:47.677Z,20.15
2019-03-19T13:26:19.765Z,20.29
2019-03-19T13:28:51.244Z,19.97
2019-03-19T13:31:24.534Z,21.00
2019-03-19T13:33:55.454Z,21.11
2019-03-19T13:36:26.713Z,21.86
2019-03-19T13:38:57.673Z,22.99
2019-03-19T13:41:32.054Z,23.30
2019-03-19T13:44:03.461Z,22.54
2019-03-19T13:46:34.894Z,23.05
2019-03-19T13:49:06.030Z,22.54
2019-03-19T13:51:37.708Z,20.72
2019-03-19T13:54:08.879Z,20.43
2019-03-19T13:56:40.471Z,19.37
2019-03-19T13:59:13.164Z,18.32
2019-03-19T14:01:45.362Z,17.70
2019-03-19T14:04:16.504Z,16.32
2019-03-19T14:06:47.531Z,15.47
2019-03-19T14:09:20.681Z,15.42
2019-03-19T14:11:54.261Z,15.59
2019-03-19T14:14:25.829Z,15.11
2019-03-19T14:16:57.498Z,14.91
2019-03-19T14:19:28.828Z,14.86
2019-03-19T14:22:02.411Z,14.71
2019-03-19T14:24:33.713Z,14.49
2019-03-19T14:27:06.100Z,14.22
2019-03-19T14:29:37.326Z,14.08
2019-03-19T14:32:08.576Z,14.06
2019-03-19T14:34:41.045Z,13.95
2019-03-19T14:37:12.564Z,13.83
2019-03-19T14:39:45.287Z,13.85
2019-03-19T14:42:23.212Z,13.89
2019-03-19T14:45:08.028Z,13.88
2019-03-19T14:47:39.567Z,13.72
2019-03-19T14:50:22.418Z,13.69
2019-03-19T14:52:54.030Z,13.69
2019-03-19T14:55:26.553Z,13.59
2019-03-19T14:57:57.996Z,13.43
2019-03-19T15:00:30.847Z,13.34
2019-03-19T15:03:02.249Z,13.26
2019-03-19T15:05:35.669Z,13.18
2019-03-19T15:08:07.827Z,13.17
2019-03-19T15:10:38.989Z,13.05
2019-03-19T15:13:15.800Z,13.05
2019-03-19T15:15:50.677Z,13.03
2019-03-19T15:18:25.503Z,12.94
2019-03-19T15:20:56.941Z,13.00
2019-03-19T15:23:28.620Z,12.97
2019-03-19T15:26:01.123Z,12.88
2019-03-19T15:28:33.243Z,12.80
2019-03-19T15:31:06.232Z,12.68
2019-03-19T15:33:37.806Z,12.57
2019-03-19T15:36:09.364Z,12.45
2019-03-19T15:38:40.898Z,12.42
2019-03-19T15:41:12.450Z,12.42
2019-03-19T15:43:44.940Z,12.32
2019-03-19T15:46:18.589Z,12.20
2019-03-19T15:48:51.140Z,12.12
2019-03-19T15:51:22.766Z,12.02
2019-03-19T15:53:54.237Z,11.91
2019-03-19T15:56:25.400Z,11.83
2019-03-19T15:58:58.196Z,11.70
2019-03-19T16:01:40.060Z,11.55
2019-03-19T16:04:05.090Z,11.53
2019-03-19T16:06:37.309Z,11.43
2019-03-19T16:09:10.993Z,11.41
2019-03-19T16:11:42.480Z,11.22
2019-03-19T16:14:14.730Z,11.25
2019-03-19T16:16:46.386Z,11.19
2019-03-19T16:19:17.758Z,11.09
2019-03-19T16:21:49.139Z,11.05
2019-03-19T16:24:20.390Z,10.89
2019-03-19T16:26:51.398Z,10.88
2019-03-19T16:29:22.575Z,10.88
2019-03-19T16:31:53.774Z,10.90
2019-03-19T16:34:25.280Z,10.86
2019-03-19T16:36:56.575Z,10.77
2019-03-19T16:39:27.852Z,10.63
2019-03-19T16:41:59.172Z,10.57
2019-03-19T16:44:31.397Z,10.41
2019-03-19T16:47:03.512Z,10.36
2019-03-19T16:49:35.755Z,10.26
2019-03-19T16:52:07.039Z,10.24
2019-03-19T16:54:38.291Z,10.22
2019-03-19T16:57:10.863Z,10.26
2019-03-19T16:59:42.373Z,10.21
2019-03-19T17:02:15.279Z,10.12
2019-03-19T17:04:46.554Z,10.10
2019-03-19T17:07:17.801Z,10.01
2019-03-19T17:09:48.974Z,9.91
2019-03-19T17:12:22.218Z,9.78
2019-03-19T17:14:55.641Z,9.65
2019-03-19T17:17:26.825Z,9.58
2019-03-19T17:19:59.026Z,9.58
2019-03-19T17:22:30.315Z,9.54
2019-03-19T17:25:01.883Z,9.45
2019-03-19T17:27:33.045Z,9.46
2019-03-19T17:30:17.339Z,9.51
2019-03-19T17:32:49.818Z,9.56
2019-03-19T17:35:21.112Z,9.62
2019-03-19T17:37:52.435Z,9.51
2019-03-19T17:40:23.690Z,9.45
2019-03-19T17:42:55.192Z,9.45
2019-03-19T17:45:26.429Z,9.28
2019-03-19T17:47:57.626Z,9.22
2019-03-19T17:50:34.273Z,9.15
2019-03-19T17:53:06.020Z,8.98
2019-03-19T17:55:37.226Z,8.79
2019-03-19T17:58:08.778Z,8.72
2019-03-19T18:00:44.823Z,8.64
2019-03-19T18:03:19.542Z,8.54
2019-03-19T18:05:51.130Z,8.50
2019-03-19T18:08:23.182Z,8.61
2019-03-19T18:10:56.249Z,8.61
2019-03-19T18:13:28.598Z,8.61
2019-03-19T18:15:59.879Z,8.65
2019-03-19T18:18:31.851Z,8.66
2019-03-19T18:21:03.432Z,8.48
2019-03-19T18:23:40.717Z,8.40
2019-03-19T18:26:12.343Z,8.45
2019-03-19T18:28:43.891Z,8.73
2019-03-19T18:31:15.118Z,8.77
2019-03-19T18:33:47.052Z,8.72
2019-03-19T18:36:19.850Z,8.63
2019-03-19T18:38:50.994Z,8.55
2019-03-19T18:41:22.116Z,8.52
2019-03-19T18:43:53.330Z,8.44
2019-03-19T18:46:25.613Z,8.33
2019-03-19T18:48:57.045Z,8.21
2019-03-19T18:51:28.280Z,8.40
2019-03-19T18:53:59.425Z,8.48
2019-03-19T18:56:30.685Z,8.50
2019-03-19T18:59:01.931Z,8.51
2019-03-19T19:01:33.240Z,8.47
2019-03-19T19:04:06.267Z,8.45
2019-03-19T19:06:38.567Z,8.33
2019-03-19T19:09:10.293Z,8.28
2019-03-19T19:11:41.585Z,8.37
2019-03-19T19:14:12.961Z,8.38
2019-03-19T19:16:44.470Z,8.26
2019-03-19T19:19:15.948Z,8.12
2019-03-19T19:21:47.470Z,8.07
2019-03-19T19:24:18.903Z,8.20
2019-03-19T19:26:51.117Z,8.25
2019-03-19T19:29:28.675Z,8.09
2019-03-19T19:32:00.258Z,7.91
2019-03-19T19:34:31.488Z,7.78
2019-03-19T19:37:03.267Z,7.59
2019-03-19T19:39:34.685Z,7.59
2019-03-19T19:42:06.185Z,7.49
2019-03-19T19:44:37.489Z,7.49
2019-03-19T19:47:08.945Z,7.44
2019-03-19T19:49:40.508Z,7.38
2019-03-19T19:52:11.795Z,7.21
2019-03-19T19:54:43.237Z,7.09
2019-03-19T19:57:14.595Z,6.98
2019-03-19T19:59:45.690Z,6.94
2019-03-19T20:02:17.166Z,6.87
2019-03-19T20:04:50.025Z,6.82
2019-03-19T20:07:21.480Z,6.73
2019-03-19T20:09:53.136Z,6.64
2019-03-19T20:12:24.490Z,6.62
2019-03-19T20:14:56.959Z,6.78
2019-03-19T20:17:30.286Z,7.01
2019-03-19T20:20:01.598Z,7.35
2019-03-19T20:22:34.165Z,7.61
2019-03-19T20:25:06.558Z,7.78
2019-03-19T20:27:37.890Z,7.78
2019-03-19T20:30:14.951Z,7.74
2019-03-19T20:32:46.474Z,7.80
2019-03-19T20:35:18.922Z,8.12
2019-03-19T20:37:50.271Z,8.14
2019-03-19T20:40:21.868Z,8.12
2019-03-19T20:42:53.107Z,8.26
2019-03-19T20:45:25.595Z,8.21
2019-03-19T20:47:56.996Z,8.34
2019-03-19T20:50:31.779Z,8.43
2019-03-19T20:53:03.381Z,8.38
2019-03-19T20:55:34.838Z,8.39
2019-03-19T20:58:06.105Z,8.35
2019-03-19T21:00:37.324Z,8.31
2019-03-19T21:03:08.695Z,8.33
2019-03-19T21:05:41.982Z,8.21
2019-03-19T21:08:13.419Z,8.20
2019-03-19T21:10:44.640Z,8.22
2019-03-19T21:13:15.989Z,8.16
2019-03-19T21:15:48.433Z,8.21
2019-03-19T21:18:19.944Z,8.18
2019-03-19T21:20:51.283Z,8.11
2019-03-19T21:23:22.550Z,8.07
2019-03-19T21:25:53.758Z,8.12
2019-03-19T21:28:27.068Z,7.95
2019-03-19T21:30:58.437Z,7.80
2019-03-19T21:33:30.089Z,7.78
2019-03-19T21:36:01.264Z,7.64
2019-03-19T21:38:32.711Z,7.59
2019-03-19T21:41:04.038Z,7.55
2019-03-19T21:43:35.490Z,7.55
2019-03-19T21:46:06.793Z,7.52
2019-03-19T21:48:38.987Z,7.44
2019-03-19T21:51:10.670Z,7.44
2019-03-19T21:53:42.106Z,7.37
2019-03-19T21:56:13.670Z,7.44
2019-03-19T21:58:45.034Z,7.39
2019-03-19T22:01:16.375Z,7.35
2019-03-19T22:03:48.198Z,7.27
2019-03-19T22:06:20.980Z,7.18
2019-03-19T22:08:52.270Z,7.29
2019-03-19T22:11:23.924Z,7.29
2019-03-19T22:13:55.597Z,7.33
2019-03-19T22:16:34.503Z,7.25
2019-03-19T22:19:15.992Z,7.13
2019-03-19T22:21:50.453Z,7.19
2019-03-19T22:24:22.110Z,7.15
2019-03-19T22:26:53.319Z,7.01
2019-03-19T22:29:26.657Z,7.02
2019-03-19T22:31:58.268Z,6.95
2019-03-19T22:34:29.763Z,6.89
2019-03-19T22:37:01.460Z,6.93
2019-03-19T22:39:32.971Z,6.87
2019-03-19T22:42:05.103Z,6.79
2019-03-19T22:44:36.715Z,6.80
2019-03-19T22:47:08.199Z,6.71
2019-03-19T22:49:39.866Z,6.72
2019-03-19T22:52:11.427Z,6.75
2019-03-19T22:54:43.901Z,6.72
2019-03-19T22:57:15.499Z,6.61
2019-03-19T22:59:47.930Z,6.64
2019-03-19T23:02:21.124Z,6.60
2019-03-19T23:04:52.718Z,6.57
2019-03-19T23:07:30.128Z,6.58
2019-03-19T23:10:02.442Z,6.54
2019-03-19T23:12:33.906Z,6.45
2019-03-19T23:15:08.121Z,6.49
2019-03-19T23:17:39.584Z,6.45
2019-03-19T23:20:12.688Z,6.33
2019-03-19T23:22:44.034Z,6.34
2019-03-19T23:25:15.766Z,6.25
2019-03-19T23:27:47.183Z,6.23
2019-03-19T23:30:23.990Z,6.11
2019-03-19T23:32:55.271Z,5.99
2019-03-19T23:35:26.810Z,5.95
2019-03-19T23:37:58.291Z,5.89
2019-03-19T23:40:29.658Z,5.84
2019-03-19T23:43:01.039Z,5.77
2019-03-19T23:45:32.597Z,5.78
2019-03-19T23:48:03.878Z,5.76
2019-03-19T23:50:35.327Z,5.76
2019-03-19T23:53:06.851Z,5.63
2019-03-19T23:55:38.402Z,5.60
2019-03-19T23:58:14.159Z,5.57
